Pagrindinis puslapis
METAR-TAF:

METAR-TAF

Oro uostai :

Atėnai, Graikija

platuma: 37-56N, ilguma: 023-56E, Aukštis: 94 m

Dabartinis oras

Ataskaita buvo paskelbta 38 minutes, ne 04:20 UTC
Ramus vėjas
Temperatūra 17°C
Drėgmė 68%
Slėgis 1014 hPa
Matomumas 10 km arba daugiau
nėra debesų žemiau 1500 m ir nėra kamuolinių lietaus debesų

METAR: LGAV 180420Z 00000KT CAVOK 17/11 Q1014 NOSIG

Laikas: 07:58 (04:58 UTC)

Prognozė

Ataskaita buvo paskelbta 5 valandos ir 58 minutes, ne 23:00 UTC
Prognozė galioja nuo 18 metu 00 UTC su 18 metu 24 UTC
Vėjas 5 kt nuo kintamojo kryptimis
Matomumas 10 km arba daugiau
Mažai debesys ne aukštis 2000 ft
Laikinai
nuo 18 metu 07 UTC su 18 metu 16 UTC
Vėjas 14 kt iš Pietų

TAF: LGAV 172300Z 1800/1824 VRB05KT 9999 FEW020 TEMPO 1807/1816 17014KT

Orai ataskaitas ir orų prognozės (METAR, TAF).

turimą stotys yra geltonos ir raudonos taškus žemėlapyje.

Perkelti pele per norėdami pamatyti stoties vardą.

Tada spustelėkite, norėdami matyti oro stebėjimo ir prognozės.

Norėdami pakeisti žemėlapį: spustelėkite ant žalios mygtukų su juodo kryžiaus žemyn,; žalią mygtuką su brūkšneliu, jei norite nutolinti; arba žalių rodyklių gretimoms žemėlapius.


METAR-TAF: